Time;durP1;ratioP1;P1;durP2;ratioP2;P2;SDS_P1;SDS_P2;PMS_P1;PMS_P2;Temp;Humidity;BMP_temperature;BMP_pressure;BME280_temperature;BME280_humidity;BME280_pressure;Samples;Min_cycle;Max_cycle;Signal;HPM_P1;HPM_P2
2024/01/03 00:00:18;;;;;;;19.50;15.37;;;;;;;4.70;70.66;94581.31;5073617;28;20273;-71
2024/01/03 00:02:47;;;;;;;18.47;16.03;;;;;;;4.55;70.79;94574.78;5075344;28;20279;-73
2024/01/03 00:05:13;;;;;;;18.23;15.67;;;;;;;4.66;70.54;94568.69;5066335;28;20204;-73
2024/01/03 00:07:40;;;;;;;16.37;13.70;;;;;;;4.61;70.84;94588.09;5072648;28;20185;-74
2024/01/03 00:10:29;;;;;;;18.67;15.17;;;;;;;4.46;70.90;94578.94;5071237;28;20192;-74
2024/01/03 00:12:55;;;;;;;18.23;14.33;;;;;;;4.64;70.35;94579.22;4973792;28;20195;-73
2024/01/03 00:15:35;;;;;;;19.70;15.23;;;;;;;4.70;70.28;94588.28;4977065;28;20228;-73
2024/01/03 00:18:04;;;;;;;18.77;14.73;;;;;;;4.60;70.75;94589.06;4975311;28;20247;-71
2024/01/03 00:20:32;;;;;;;18.17;14.30;;;;;;;4.55;71.31;94593.81;4974262;28;20230;-71
2024/01/03 00:22:58;;;;;;;16.23;13.97;;;;;;;4.62;71.85;94594.13;4974535;28;20192;-71
2024/01/03 00:25:29;;;;;;;18.67;15.10;;;;;;;4.75;71.78;94599.16;4974308;28;20242;-72
2024/01/03 00:27:56;;;;;;;18.03;14.13;;;;;;;4.62;72.14;94589.78;4959390;28;20230;-71
2024/01/03 00:30:21;;;;;;;18.20;13.23;;;;;;;4.71;72.03;94582.97;4976087;28;20234;-71
2024/01/03 00:32:47;;;;;;;17.87;14.70;;;;;;;4.78;72.42;94573.69;4974068;28;20258;-72
2024/01/03 00:35:13;;;;;;;19.00;13.20;;;;;;;4.82;71.90;94585.50;4976541;28;20313;-72
2024/01/03 00:37:40;;;;;;;15.07;12.47;;;;;;;4.79;71.74;94585.75;4974213;28;20203;-72
2024/01/03 00:40:32;;;;;;;15.77;13.53;;;;;;;4.89;71.97;94583.19;4975443;28;20260;-72
2024/01/03 00:42:57;;;;;;;17.67;15.13;;;;;;;4.78;71.66;94585.88;4974725;28;20282;-72
2024/01/03 00:45:22;;;;;;;15.13;12.60;;;;;;;4.68;71.87;94582.38;4975466;28;20195;-72
2024/01/03 00:47:48;;;;;;;16.90;13.30;;;;;;;4.74;72.19;94563.66;4991485;28;20293;-72
2024/01/03 00:50:14;;;;;;;17.23;14.73;;;;;;;4.71;71.94;94587.38;5038185;28;20233;-72
2024/01/03 00:52:40;;;;;;;16.10;13.57;;;;;;;4.74;72.19;94572.28;5073014;28;20555;-72
2024/01/03 00:55:08;;;;;;;14.97;12.63;;;;;;;4.89;71.81;94583.19;5074659;28;20252;-72
2024/01/03 00:57:34;;;;;;;16.63;13.43;;;;;;;4.92;71.92;94579.50;5071920;28;20191;-72
2024/01/03 01:00:00;;;;;;;17.83;13.97;;;;;;;4.89;71.81;94591.03;5075276;28;20215;-72
2024/01/03 01:02:25;;;;;;;17.07;14.10;;;;;;;4.75;71.91;94578.31;5070820;28;20248;-72
2024/01/03 01:04:51;;;;;;;17.40;13.30;;;;;;;4.82;72.43;94572.47;5072315;28;20196;-71
2024/01/03 01:07:16;;;;;;;16.13;13.70;;;;;;;4.80;72.61;94592.63;5072135;28;20184;-71
2024/01/03 01:09:42;;;;;;;17.83;13.83;;;;;;;4.59;72.73;94592.59;5075328;28;20214;-71
2024/01/03 01:12:07;;;;;;;17.13;14.63;;;;;;;4.55;72.58;94577.38;5071965;28;20189;-71
2024/01/03 01:14:33;;;;;;;17.03;13.87;;;;;;;4.74;72.41;94579.28;5065770;28;20193;-71
2024/01/03 01:16:58;;;;;;;21.57;16.27;;;;;;;4.74;72.16;94571.47;5073645;28;20243;-71
2024/01/03 01:19:23;;;;;;;17.83;13.77;;;;;;;4.88;72.22;94581.56;5070269;28;20250;-71
2024/01/03 01:21:49;;;;;;;17.90;14.53;;;;;;;4.76;72.32;94569.56;5072588;28;20242;-72
2024/01/03 01:24:14;;;;;;;18.57;15.70;;;;;;;4.85;72.39;94574.00;5072980;28;20197;-71
2024/01/03 01:26:40;;;;;;;17.47;13.33;;;;;;;4.92;72.09;94558.69;5071622;28;20291;-71
2024/01/03 01:29:05;;;;;;;18.47;13.40;;;;;;;4.91;72.39;94557.03;5075544;28;20233;-73
2024/01/03 01:31:31;;;;;;;17.83;14.40;;;;;;;4.89;72.57;94569.34;5070776;28;20241;-71
2024/01/03 01:33:56;;;;;;;15.27;13.40;;;;;;;4.80;72.89;94563.97;5075156;28;20263;-72
2024/01/03 01:36:21;;;;;;;17.43;14.40;;;;;;;4.81;72.90;94552.59;5070765;28;20201;-72
2024/01/03 01:38:47;;;;;;;16.93;13.10;;;;;;;4.75;73.09;94553.09;5070658;28;20199;-72
2024/01/03 01:41:12;;;;;;;18.90;14.27;;;;;;;4.88;72.77;94533.84;5072097;28;20188;-72
2024/01/03 01:43:38;;;;;;;16.43;13.33;;;;;;;4.91;72.79;94550.03;5068952;28;20196;-71
2024/01/03 01:46:04;;;;;;;16.20;14.23;;;;;;;4.83;72.89;94560.28;5071905;28;20199;-72
2024/01/03 01:48:30;;;;;;;20.77;14.77;;;;;;;4.63;73.67;94538.50;5069441;28;20215;-72
2024/01/03 01:50:56;;;;;;;17.23;14.50;;;;;;;4.72;73.26;94561.16;5069780;28;20256;-72
2024/01/03 01:53:22;;;;;;;17.03;14.00;;;;;;;4.76;73.14;94533.94;5073777;28;20278;-72
2024/01/03 01:55:48;;;;;;;17.37;14.70;;;;;;;4.96;73.24;94526.22;5071928;28;20255;-72
2024/01/03 01:58:14;;;;;;;17.80;13.93;;;;;;;4.94;73.22;94547.19;5068354;28;20253;-72
2024/01/03 02:00:41;;;;;;;18.87;14.30;;;;;;;4.95;73.26;94548.03;5068091;28;20239;-72
2024/01/03 02:03:07;;;;;;;17.00;14.13;;;;;;;4.82;73.08;94535.19;5069788;28;20185;-72
2024/01/03 02:05:35;;;;;;;17.97;13.93;;;;;;;4.94;73.30;94562.00;5073778;28;20189;-71
2024/01/03 02:08:01;;;;;;;18.33;14.60;;;;;;;4.92;73.61;94549.09;5074131;28;20245;-72
2024/01/03 02:10:26;;;;;;;17.17;13.87;;;;;;;4.90;73.76;94571.03;5066872;28;20192;-72
2024/01/03 02:12:51;;;;;;;18.70;14.00;;;;;;;4.79;74.15;94556.28;5070453;28;20193;-71
2024/01/03 02:15:17;;;;;;;17.97;14.50;;;;;;;4.83;74.13;94561.09;5070337;28;20212;-72
2024/01/03 02:17:43;;;;;;;16.50;14.70;;;;;;;4.94;74.13;94554.16;5070834;28;20188;-71
2024/01/03 02:20:12;;;;;;;17.73;14.60;;;;;;;4.99;74.63;94559.81;5072658;28;20892;-72
2024/01/03 02:22:37;;;;;;;19.83;13.80;;;;;;;4.88;74.49;94558.13;5070748;28;20192;-72
2024/01/03 02:25:10;;;;;;;18.43;14.17;;;;;;;4.97;74.18;94548.69;5069171;28;20191;-71
2024/01/03 02:27:35;;;;;;;16.20;13.70;;;;;;;4.88;74.63;94549.47;5072910;28;20193;-72
2024/01/03 02:30:01;;;;;;;17.07;14.47;;;;;;;4.95;74.65;94550.63;5076314;28;20193;-71
2024/01/03 02:32:26;;;;;;;16.40;14.13;;;;;;;5.02;74.02;94538.72;5074762;28;20276;-72
2024/01/03 02:34:52;;;;;;;16.20;13.13;;;;;;;4.99;73.58;94538.97;5076400;28;20271;-72
2024/01/03 02:37:22;;;;;;;17.13;13.43;;;;;;;5.01;73.75;94537.91;5073247;28;20209;-72
2024/01/03 02:39:47;;;;;;;17.13;14.60;;;;;;;4.96;73.44;94527.03;5073937;28;20251;-72
2024/01/03 02:42:13;;;;;;;17.00;14.63;;;;;;;4.97;73.47;94552.16;5073019;28;20181;-72
2024/01/03 02:44:38;;;;;;;17.80;14.53;;;;;;;4.98;74.01;94532.94;5066602;28;20188;-72
2024/01/03 02:47:03;;;;;;;18.47;15.43;;;;;;;4.99;73.54;94546.78;5074597;28;20192;-72
2024/01/03 02:49:29;;;;;;;16.67;14.30;;;;;;;4.97;73.89;94525.25;5073504;28;20296;-73
2024/01/03 02:51:54;;;;;;;17.00;15.10;;;;;;;4.96;74.38;94534.84;5074479;28;20263;-72
2024/01/03 02:54:20;;;;;;;18.33;14.50;;;;;;;4.98;74.38;94519.09;5073382;28;20196;-71
2024/01/03 02:56:45;;;;;;;16.23;14.53;;;;;;;5.25;73.63;94516.72;5078885;28;20207;-72
2024/01/03 02:59:11;;;;;;;16.40;13.73;;;;;;;5.06;74.29;94501.84;5077688;28;20200;-72
2024/01/03 03:01:36;;;;;;;16.43;14.67;;;;;;;5.05;74.42;94515.00;5053710;28;20193;-72
2024/01/03 03:04:01;;;;;;;18.13;15.03;;;;;;;5.01;74.72;94501.41;5078015;28;20180;-72
2024/01/03 03:06:27;;;;;;;17.33;14.90;;;;;;;5.06;74.57;94508.84;5062791;28;20192;-72
2024/01/03 03:08:52;;;;;;;16.20;13.73;;;;;;;5.09;74.63;94516.41;5070305;28;20192;-72
2024/01/03 03:11:19;;;;;;;17.40;14.17;;;;;;;5.12;74.46;94490.06;5071434;28;20196;-72
2024/01/03 03:13:44;;;;;;;17.23;15.37;;;;;;;5.20;74.53;94499.84;5070630;28;20193;-72
2024/01/03 03:16:09;;;;;;;18.27;14.77;;;;;;;5.11;74.71;94500.66;5074076;28;20204;-72
2024/01/03 03:18:35;;;;;;;17.73;13.77;;;;;;;5.18;74.43;94506.97;5075890;28;20228;-72
2024/01/03 03:21:00;;;;;;;16.80;13.93;;;;;;;5.07;74.60;94500.06;5073351;28;20204;-73
2024/01/03 03:23:26;;;;;;;16.60;14.67;;;;;;;5.22;74.20;94505.75;5069492;28;20199;-72
2024/01/03 03:25:52;;;;;;;16.63;14.83;;;;;;;5.17;74.37;94500.94;5076373;28;20260;-72
2024/01/03 03:28:18;;;;;;;15.53;13.80;;;;;;;5.26;73.92;94502.72;5074098;28;20195;-72
2024/01/03 03:30:43;;;;;;;17.00;14.30;;;;;;;5.21;74.23;94501.47;5055571;28;20199;-72
2024/01/03 03:33:09;;;;;;;15.53;13.30;;;;;;;5.29;74.31;94494.69;5080943;28;20188;-72
2024/01/03 03:35:34;;;;;;;17.17;14.37;;;;;;;5.20;74.17;94489.41;5075239;28;20205;-73
2024/01/03 03:37:59;;;;;;;16.27;14.10;;;;;;;5.33;74.68;94478.75;5073786;28;20215;-72
2024/01/03 03:40:25;;;;;;;16.20;13.97;;;;;;;5.29;74.22;94483.41;5075557;28;20246;-72
2024/01/03 03:42:51;;;;;;;16.30;14.47;;;;;;;5.29;74.05;94473.81;5075826;28;20206;-72
2024/01/03 03:45:16;;;;;;;17.53;15.27;;;;;;;5.35;73.94;94482.06;5075807;28;20217;-72
2024/01/03 03:47:42;;;;;;;17.53;15.00;;;;;;;5.17;74.74;94472.25;5074071;28;20193;-72
2024/01/03 03:50:07;;;;;;;16.90;14.47;;;;;;;5.28;74.66;94474.75;5073808;28;20212;-72
2024/01/03 03:52:32;;;;;;;18.27;15.37;;;;;;;5.35;74.50;94479.47;5057607;28;20196;-72
2024/01/03 03:54:58;;;;;;;18.53;15.70;;;;;;;5.21;74.89;94481.47;5073634;28;20272;-72
2024/01/03 03:57:23;;;;;;;17.17;14.73;;;;;;;5.29;74.67;94458.19;5071217;28;20213;-71
2024/01/03 03:59:49;;;;;;;16.80;14.83;;;;;;;5.37;74.77;94448.84;5073970;28;20191;-71
2024/01/03 04:02:14;;;;;;;17.80;15.37;;;;;;;5.39;74.90;94463.41;5076133;28;20192;-73
2024/01/03 04:04:39;;;;;;;15.83;14.13;;;;;;;5.39;74.61;94460.78;5078707;28;20200;-71
2024/01/03 04:07:06;;;;;;;19.43;15.83;;;;;;;5.45;74.61;94472.47;5073030;28;20267;-71
2024/01/03 04:09:31;;;;;;;16.90;15.10;;;;;;;5.31;74.93;94476.28;5075249;28;20197;-71
2024/01/03 04:11:56;;;;;;;16.20;14.50;;;;;;;5.33;73.97;94474.38;5069594;28;20195;-72
2024/01/03 04:14:22;;;;;;;16.70;14.17;;;;;;;5.32;73.87;94483.16;5076386;28;20189;-71
2024/01/03 04:16:47;;;;;;;16.90;14.63;;;;;;;5.18;73.98;94484.31;5072306;28;20212;-71
2024/01/03 04:19:13;;;;;;;19.13;15.43;;;;;;;5.21;72.62;94478.03;5072623;28;20284;-71
2024/01/03 04:21:38;;;;;;;20.07;15.50;;;;;;;5.13;73.01;94470.88;5076203;28;20193;-72
2024/01/03 04:24:04;;;;;;;19.27;15.53;;;;;;;5.02;73.27;94484.00;5075304;28;20188;-75
2024/01/03 04:26:29;;;;;;;18.77;15.77;;;;;;;5.07;73.00;94481.81;5069583;28;20272;-75
2024/01/03 04:28:54;;;;;;;19.47;16.67;;;;;;;5.07;72.99;94481.81;5073266;28;20231;-75
2024/01/03 04:31:20;;;;;;;21.10;15.93;;;;;;;5.00;72.44;94484.13;5076935;28;20192;-76
2024/01/03 04:33:45;;;;;;;19.33;16.37;;;;;;;5.03;72.96;94489.09;5075852;28;20240;-76
2024/01/03 04:36:11;;;;;;;18.10;14.80;;;;;;;5.04;72.75;94503.75;5074292;28;20212;-75
2024/01/03 04:38:37;;;;;;;16.50;14.23;;;;;;;4.98;73.30;94498.25;5072938;28;20527;-75
2024/01/03 04:41:02;;;;;;;19.57;17.47;;;;;;;5.02;72.94;94497.84;5071760;28;20189;-74
2024/01/03 04:43:28;;;;;;;20.57;17.17;;;;;;;5.04;72.96;94515.97;5071630;28;20260;-75
2024/01/03 04:45:53;;;;;;;16.70;14.20;;;;;;;5.03;72.65;94496.09;5077756;28;20216;-77
2024/01/03 04:48:19;;;;;;;16.97;14.37;;;;;;;4.99;73.10;94492.91;5071737;28;20204;-78
2024/01/03 04:50:44;;;;;;;18.63;15.00;;;;;;;4.96;73.10;94495.75;5075553;28;20235;-77
2024/01/03 04:53:10;;;;;;;19.20;14.37;;;;;;;4.96;73.50;94492.34;5072226;28;20184;-73
2024/01/03 04:55:35;;;;;;;19.53;15.10;;;;;;;4.97;73.42;94483.56;5074923;28;20212;-75
2024/01/03 04:58:01;;;;;;;17.53;15.70;;;;;;;4.75;74.56;94498.41;5075174;28;20208;-75
2024/01/03 05:00:26;;;;;;;17.53;15.33;;;;;;;4.89;73.93;94497.22;5072044;28;20191;-75
2024/01/03 05:02:53;;;;;;;17.53;15.73;;;;;;;4.97;74.32;94494.84;5072847;28;20189;-75
2024/01/03 05:05:19;;;;;;;17.07;15.27;;;;;;;4.90;74.17;94485.88;5071140;28;20303;-76
2024/01/03 05:07:44;;;;;;;16.47;14.53;;;;;;;5.02;74.36;94502.22;5071088;28;20181;-76
2024/01/03 05:10:10;;;;;;;16.63;14.40;;;;;;;4.93;74.39;94495.22;5072267;28;20195;-76
2024/01/03 05:12:38;;;;;;;19.20;15.83;;;;;;;5.03;74.51;94498.69;5071355;28;20192;-76
2024/01/03 05:15:04;;;;;;;18.80;16.23;;;;;;;5.02;74.74;94499.63;5075477;28;20185;-77
2024/01/03 05:17:30;;;;;;;17.47;14.83;;;;;;;5.07;74.22;94487.03;5071683;28;20292;-77
2024/01/03 05:19:56;;;;;;;18.57;15.33;;;;;;;5.01;74.33;94492.78;5079529;28;20194;-76
2024/01/03 05:22:22;;;;;;;19.53;15.80;;;;;;;4.94;75.04;94478.63;5073552;28;20184;-77
2024/01/03 05:24:47;;;;;;;20.10;16.87;;;;;;;4.96;75.26;94489.75;5071426;28;20193;-76
2024/01/03 05:27:13;;;;;;;20.80;18.47;;;;;;;4.92;74.64;94477.91;5073658;28;20200;-75
2024/01/03 05:29:38;;;;;;;20.33;16.47;;;;;;;4.97;74.52;94484.41;5071110;28;20181;-75
2024/01/03 05:32:05;;;;;;;17.93;16.13;;;;;;;5.08;74.51;94486.09;5073159;28;20180;-77
2024/01/03 05:34:30;;;;;;;19.73;15.33;;;;;;;5.09;74.03;94482.53;5057380;28;20185;-73
2024/01/03 05:36:56;;;;;;;18.17;16.20;;;;;;;5.13;74.17;94486.50;5072208;28;20201;-74
2024/01/03 05:39:22;;;;;;;19.93;16.00;;;;;;;5.09;74.19;94490.34;5071537;28;20209;-76
2024/01/03 05:41:47;;;;;;;24.10;19.07;;;;;;;5.10;74.48;94502.41;5069354;28;20180;-75
2024/01/03 05:44:13;;;;;;;27.63;24.80;;;;;;;5.08;74.14;94486.91;5071840;28;20188;-76
2024/01/03 05:46:39;;;;;;;30.90;27.30;;;;;;;4.96;73.69;94497.56;5073328;28;20188;-76
2024/01/03 05:49:05;;;;;;;27.30;24.40;;;;;;;5.05;72.73;94496.75;5067393;28;20242;-74
2024/01/03 05:51:31;;;;;;;27.23;24.33;;;;;;;5.06;72.34;94501.03;5070606;28;20216;-76
2024/01/03 05:53:56;;;;;;;23.87;20.00;;;;;;;4.87;72.54;94499.16;5066030;28;20196;-76
2024/01/03 05:56:22;;;;;;;20.60;18.40;;;;;;;4.78;72.54;94500.75;5069972;28;20220;-76
2024/01/03 05:58:47;;;;;;;18.90;16.87;;;;;;;4.82;72.19;94496.13;5069400;28;20192;-76
2024/01/03 06:01:13;;;;;;;18.60;16.40;;;;;;;4.74;72.12;94494.16;5069626;28;20257;-75
2024/01/03 06:03:38;;;;;;;18.80;15.87;;;;;;;4.82;71.49;94498.72;5073189;28;20192;-79
2024/01/03 06:06:04;;;;;;;18.53;16.23;;;;;;;4.75;71.63;94484.56;5072721;28;20200;-74
2024/01/03 06:08:29;;;;;;;18.10;15.47;;;;;;;4.78;71.73;94497.31;5074175;28;20199;-75
2024/01/03 06:10:55;;;;;;;19.17;17.07;;;;;;;4.88;71.45;94490.38;5075586;28;20248;-76
2024/01/03 06:13:22;;;;;;;21.03;15.83;;;;;;;4.88;71.65;94497.38;5076128;28;20203;-75
2024/01/03 06:15:47;;;;;;;18.77;16.10;;;;;;;4.93;71.75;94487.41;5073899;28;20201;-73
2024/01/03 06:18:13;;;;;;;17.37;15.57;;;;;;;4.89;72.21;94496.41;5076991;28;20210;-74
2024/01/03 06:20:40;;;;;;;17.17;14.37;;;;;;;4.82;72.35;94494.34;5074034;28;20195;-74
2024/01/03 06:23:05;;;;;;;16.83;15.00;;;;;;;4.82;72.80;94490.91;5071978;28;20260;-71
2024/01/03 06:25:33;;;;;;;17.87;14.27;;;;;;;4.86;72.88;94503.56;5060920;28;20193;-74
2024/01/03 06:27:59;;;;;;;14.97;13.50;;;;;;;4.94;72.99;94502.06;5063835;28;20216;-74
2024/01/03 06:30:24;;;;;;;16.43;13.60;;;;;;;4.92;72.93;94498.75;5060805;28;20297;-75
2024/01/03 06:32:50;;;;;;;14.43;12.73;;;;;;;4.90;73.05;94498.91;5072264;28;20224;-75
2024/01/03 06:35:15;;;;;;;15.50;12.57;;;;;;;4.94;73.22;94500.28;5071659;28;20273;-75
2024/01/03 06:37:41;;;;;;;12.47;11.17;;;;;;;4.94;73.44;94491.63;5061987;28;20246;-75
2024/01/03 06:40:07;;;;;;;12.77;10.87;;;;;;;5.07;73.03;94481.81;5069569;28;20239;-75
2024/01/03 06:42:32;;;;;;;14.83;12.77;;;;;;;5.12;72.95;94482.25;5071246;28;20248;-75
2024/01/03 06:44:58;;;;;;;13.27;11.37;;;;;;;5.09;73.15;94469.50;5069203;28;20224;-75
2024/01/03 06:47:23;;;;;;;12.30;10.87;;;;;;;5.08;73.19;94480.88;5069864;28;20220;-76
2024/01/03 06:49:49;;;;;;;12.93;11.20;;;;;;;5.11;73.01;94464.97;5069100;28;20188;-76
2024/01/03 06:52:14;;;;;;;12.80;11.50;;;;;;;5.16;72.97;94488.88;5065018;28;20217;-76
2024/01/03 06:54:40;;;;;;;14.20;12.23;;;;;;;5.14;73.19;94464.72;5071925;28;20217;-73
2024/01/03 06:57:05;;;;;;;14.20;11.60;;;;;;;5.22;73.24;94493.53;5067607;28;20236;-75
2024/01/03 06:59:38;;;;;;;14.10;11.67;;;;;;;5.17;73.83;94487.91;5070205;28;20228;-75
2024/01/03 07:02:04;;;;;;;16.50;11.47;;;;;;;5.26;73.46;94491.50;5069228;28;20207;-76
2024/01/03 07:04:29;;;;;;;12.67;10.77;;;;;;;5.25;73.79;94503.69;5071009;28;20220;-75
2024/01/03 07:06:56;;;;;;;13.17;10.80;;;;;;;5.43;73.63;94495.25;5074458;28;20213;-75
2024/01/03 07:09:21;;;;;;;14.13;11.07;;;;;;;5.46;73.65;94468.91;5068147;28;20221;-76
2024/01/03 07:11:48;;;;;;;13.40;11.53;;;;;;;5.45;73.54;94468.09;5070680;28;20227;-76
2024/01/03 07:14:13;;;;;;;12.83;11.17;;;;;;;5.50;73.46;94472.88;5072402;28;20224;-75
2024/01/03 07:16:39;;;;;;;14.23;10.47;;;;;;;5.53;73.41;94460.44;5069636;28;20185;-77
2024/01/03 07:19:05;;;;;;;12.50;10.30;;;;;;;5.55;73.38;94468.09;5068763;28;20259;-76
2024/01/03 07:21:31;;;;;;;22.23;11.50;;;;;;;5.44;73.85;94466.44;5072322;28;20226;-75
2024/01/03 07:23:56;;;;;;;15.93;12.07;;;;;;;5.64;73.48;94482.97;5068814;28;20255;-76
2024/01/03 07:26:22;;;;;;;13.17;11.37;;;;;;;5.64;73.68;94488.16;5069588;28;20224;-78
2024/01/03 07:28:47;;;;;;;14.43;11.37;;;;;;;5.62;73.69;94497.91;5075328;28;20233;-75
2024/01/03 07:31:13;;;;;;;14.33;11.63;;;;;;;5.49;74.17;94484.28;5068542;28;20299;-79
2024/01/03 07:33:40;;;;;;;21.23;12.87;;;;;;;5.44;74.04;94484.69;5071322;28;20248;-78
2024/01/03 07:36:06;;;;;;;14.50;12.67;;;;;;;5.50;74.02;94476.31;5065553;28;20256;-76
2024/01/03 07:38:32;;;;;;;16.67;12.77;;;;;;;5.36;74.66;94478.50;5054677;28;20310;-76
2024/01/03 07:40:59;;;;;;;14.67;12.57;;;;;;;5.39;74.62;94484.25;5065076;28;20284;-76
2024/01/03 07:43:24;;;;;;;19.47;13.77;;;;;;;5.41;74.52;94484.13;5065710;28;20296;-76
2024/01/03 07:45:49;;;;;;;19.13;14.57;;;;;;;5.50;74.43;94488.53;5068807;28;20292;-79
2024/01/03 07:48:15;;;;;;;17.53;13.40;;;;;;;5.52;74.33;94484.03;5066192;28;20217;-82
2024/01/03 07:50:42;;;;;;;17.10;14.53;;;;;;;5.53;74.60;94470.00;5067196;28;20229;-80
2024/01/03 07:53:07;;;;;;;17.97;14.33;;;;;;;5.45;74.64;94485.50;5070886;28;20276;-77
2024/01/03 07:55:33;;;;;;;17.70;13.57;;;;;;;5.48;74.85;94477.41;5070222;28;20674;-76
2024/01/03 07:57:58;;;;;;;19.53;14.93;;;;;;;5.55;74.75;94481.13;5062078;28;20237;-77
2024/01/03 08:00:24;;;;;;;18.20;13.97;;;;;;;5.64;74.67;94492.53;5067580;28;20221;-73
2024/01/03 08:02:49;;;;;;;17.20;13.50;;;;;;;5.65;74.63;94474.16;5068359;28;20208;-79
2024/01/03 08:05:15;;;;;;;17.53;13.97;;;;;;;5.83;74.60;94470.91;5063427;28;20244;-74
2024/01/03 08:07:40;;;;;;;17.97;13.57;;;;;;;5.76;74.75;94473.22;5063210;28;20192;-76
2024/01/03 08:10:06;;;;;;;15.73;13.17;;;;;;;5.90;74.51;94462.38;5067919;28;20213;-75
2024/01/03 08:12:32;;;;;;;15.53;13.40;;;;;;;5.92;74.36;94446.59;5065330;28;20225;-75
2024/01/03 08:14:57;;;;;;;18.20;14.10;;;;;;;6.17;74.05;94453.06;5070722;28;20335;-76
2024/01/03 08:17:22;;;;;;;20.37;15.50;;;;;;;6.04;74.17;94455.97;5065383;28;20315;-79
2024/01/03 08:19:48;;;;;;;20.73;15.77;;;;;;;5.91;74.59;94455.38;5067329;28;20216;-73
2024/01/03 08:22:13;;;;;;;22.30;16.50;;;;;;;5.97;74.63;94462.69;5067549;28;20221;-75
2024/01/03 08:24:38;;;;;;;22.47;14.20;;;;;;;5.97;75.24;94460.06;5068147;28;20308;-75
2024/01/03 08:27:04;;;;;;;15.27;13.37;;;;;;;6.02;74.64;94459.66;5070305;28;20227;-73
2024/01/03 08:29:30;;;;;;;16.57;13.63;;;;;;;6.14;74.57;94459.38;5064876;28;20216;-75
2024/01/03 08:31:56;;;;;;;16.50;12.60;;;;;;;6.05;74.51;94470.66;5072197;28;20189;-74
2024/01/03 08:34:21;;;;;;;17.50;13.10;;;;;;;6.17;74.28;94459.13;5072331;28;20201;-75
2024/01/03 08:36:47;;;;;;;14.93;13.07;;;;;;;6.29;74.28;94461.56;5069150;28;20245;-77
2024/01/03 08:39:13;;;;;;;14.77;12.90;;;;;;;6.32;73.96;94443.00;5073589;28;20217;-73
2024/01/03 08:41:38;;;;;;;14.40;11.83;;;;;;;6.38;73.94;94461.53;5071029;28;20220;-76
2024/01/03 08:44:06;;;;;;;16.20;13.83;;;;;;;6.30;73.96;94442.31;5071673;28;20235;-74
2024/01/03 08:46:34;;;;;;;19.77;13.77;;;;;;;6.44;73.88;94452.31;5071769;28;20192;-76
2024/01/03 08:49:02;;;;;;;17.20;14.00;;;;;;;6.47;73.99;94453.81;5068130;28;20224;-75
2024/01/03 08:51:28;;;;;;;21.10;16.37;;;;;;;6.51;73.67;94440.34;5068570;28;20259;-74
2024/01/03 08:53:53;;;;;;;25.47;15.40;;;;;;;6.59;73.72;94445.69;5070633;28;20303;-73
2024/01/03 08:56:18;;;;;;;23.00;17.97;;;;;;;6.47;73.45;94435.53;5072537;28;20231;-73
2024/01/03 08:58:45;;;;;;;22.70;18.37;;;;;;;6.45;73.64;94432.28;5074544;28;20215;-73
2024/01/03 09:01:22;;;;;;;24.57;20.93;;;;;;;6.44;73.00;94439.25;5088573;28;20691;-75
2024/01/03 09:03:49;;;;;;;31.67;24.13;;;;;;;6.43;72.42;94414.13;5069916;28;20212;-72
2024/01/03 09:06:20;;;;;;;31.17;24.60;;;;;;;6.33;72.29;94395.84;5067785;28;20299;-75
2024/01/03 09:08:46;;;;;;;31.53;23.50;;;;;;;6.47;72.08;94418.13;5069068;28;20209;-71
2024/01/03 09:11:13;;;;;;;26.60;22.67;;;;;;;6.38;71.63;94403.28;5072685;28;20224;-76
2024/01/03 09:13:39;;;;;;;25.10;20.20;;;;;;;6.47;71.51;94422.50;5070818;28;20181;-75
2024/01/03 09:16:06;;;;;;;25.67;20.17;;;;;;;6.43;71.25;94414.13;5072460;28;20227;-76
2024/01/03 09:18:31;;;;;;;24.80;21.10;;;;;;;6.43;71.01;94418.53;5069572;28;20223;-76
2024/01/03 09:20:58;;;;;;;23.53;19.07;;;;;;;6.45;71.13;94408.78;5065671;28;20209;-76
2024/01/03 09:23:24;;;;;;;23.40;19.20;;;;;;;6.49;71.33;94392.66;5071309;28;20250;-77
2024/01/03 09:25:50;;;;;;;23.57;18.50;;;;;;;6.59;71.02;94406.50;5076419;28;20185;-75
2024/01/03 09:28:16;;;;;;;24.87;18.47;;;;;;;6.66;71.05;94408.56;5072348;28;20270;-73
2024/01/03 09:30:41;;;;;;;24.73;17.73;;;;;;;6.87;70.09;94405.72;5068554;28;20221;-74
2024/01/03 09:33:07;;;;;;;20.70;17.60;;;;;;;6.63;70.82;94409.69;5072839;28;20231;-74
2024/01/03 09:35:32;;;;;;;20.90;16.77;;;;;;;6.78;70.94;94396.97;5068380;28;20217;-73
2024/01/03 09:37:57;;;;;;;18.57;16.20;;;;;;;6.85;70.47;94421.56;5072422;28;20268;-77
2024/01/03 09:40:23;;;;;;;19.30;16.27;;;;;;;6.72;70.78;94421.88;5072188;28;20181;-74
2024/01/03 09:42:49;;;;;;;15.80;13.23;;;;;;;6.84;70.07;94420.75;5071285;28;20217;-70
2024/01/03 09:45:15;;;;;;;17.13;13.47;;;;;;;7.02;69.80;94410.31;5067871;28;20210;-73
2024/01/03 09:47:42;;;;;;;18.83;14.10;;;;;;;7.01;69.97;94390.41;5071506;28;20226;-74
2024/01/03 09:50:07;;;;;;;19.13;16.13;;;;;;;7.02;69.52;94404.28;5070115;28;20184;-73
2024/01/03 09:52:35;;;;;;;23.27;17.27;;;;;;;6.90;69.80;94408.06;5069758;28;20188;-72
2024/01/03 09:55:02;;;;;;;24.10;19.30;;;;;;;6.88;70.12;94404.78;5074196;28;20247;-73
2024/01/03 09:57:28;;;;;;;24.07;19.77;;;;;;;6.92;70.06;94400.88;5066749;28;20282;-74
2024/01/03 09:59:55;;;;;;;25.87;21.70;;;;;;;7.04;69.80;94391.91;5062293;28;20220;-76
2024/01/03 10:02:26;;;;;;;29.67;23.97;;;;;;;6.89;69.97;94402.00;5068887;28;20220;-70
2024/01/03 10:04:52;;;;;;;31.50;23.57;;;;;;;6.82;70.93;94396.53;5067586;28;20499;-70
2024/01/03 10:07:17;;;;;;;30.93;26.33;;;;;;;6.81;71.07;94394.88;5068851;28;20184;-78
2024/01/03 10:09:48;;;;;;;28.97;24.67;;;;;;;6.80;70.80;94390.63;5066893;28;20338;-72
2024/01/03 10:12:16;;;;;;;34.30;24.83;;;;;;;6.92;70.42;94399.09;5070095;28;20242;-72
2024/01/03 10:14:41;;;;;;;27.93;24.20;;;;;;;6.87;70.62;94392.66;5074412;28;20226;-76
2024/01/03 10:17:10;;;;;;;31.33;26.83;;;;;;;6.78;70.75;94373.44;5059634;28;20204;-74
2024/01/03 10:19:36;;;;;;;34.23;28.80;;;;;;;6.77;71.08;94371.81;5067438;28;20180;-72
2024/01/03 10:22:02;;;;;;;30.77;27.47;;;;;;;6.82;70.96;94378.25;5069564;28;20209;-69
2024/01/03 10:24:28;;;;;;;30.07;26.03;;;;;;;6.83;70.53;94368.63;5068571;28;20221;-79
2024/01/03 10:26:55;;;;;;;28.80;24.33;;;;;;;6.94;70.23;94368.41;5064679;28;20220;-70
2024/01/03 10:29:22;;;;;;;28.73;24.40;;;;;;;6.91;70.90;94378.34;5071984;28;20228;-69
2024/01/03 10:31:49;;;;;;;32.43;24.63;;;;;;;6.94;70.49;94363.19;5074655;28;20207;-69
2024/01/03 10:34:21;;;;;;;26.93;24.03;;;;;;;6.81;71.57;94360.91;5069327;28;20269;-70
2024/01/03 10:36:47;;;;;;;25.50;21.77;;;;;;;6.88;71.56;94358.56;5068644;28;20225;-69
2024/01/03 10:39:18;;;;;;;25.70;21.17;;;;;;;6.83;71.77;94356.38;5071662;28;20229;-70
2024/01/03 10:41:45;;;;;;;22.67;19.23;;;;;;;6.92;71.54;94352.03;5055767;28;20232;-69
2024/01/03 10:44:16;;;;;;;24.33;20.33;;;;;;;6.96;71.11;94331.69;5054480;28;20184;-66
2024/01/03 10:46:42;;;;;;;22.40;19.07;;;;;;;7.03;71.21;94332.72;5062965;28;20218;-68
2024/01/03 10:49:08;;;;;;;23.23;19.57;;;;;;;7.06;70.84;94314.16;5072666;28;20213;-67
2024/01/03 10:51:44;;;;;;;22.93;19.07;;;;;;;7.15;70.64;94312.44;5072370;28;20233;-69
2024/01/03 10:54:12;;;;;;;23.50;16.70;;;;;;;7.23;70.10;94320.38;5066542;28;20224;-72
2024/01/03 10:56:38;;;;;;;19.63;15.77;;;;;;;7.31;69.23;94306.56;5070818;28;20228;-70
2024/01/03 10:59:27;;;;;;;17.67;14.20;;;;;;;7.21;69.47;94327.53;5074565;28;20253;-72
2024/01/03 11:02:03;;;;;;;17.43;13.97;;;;;;;7.17;69.43;94318.34;5070165;28;20278;-72
2024/01/03 11:04:34;;;;;;;14.43;12.90;;;;;;;7.10;69.66;94319.91;5075044;28;20182;-71
2024/01/03 11:07:46;;;;;;;16.60;12.23;;;;;;;7.16;69.40;94303.63;5072086;28;20212;-71
2024/01/03 11:10:49;;;;;;;14.80;11.13;;;;;;;7.25;69.18;94302.75;4976262;28;20223;-68
2024/01/03 11:13:31;;;;;;;12.80;10.93;;;;;;;7.28;69.25;94313.72;4969705;28;20226;-71
2024/01/03 11:15:58;;;;;;;14.67;10.70;;;;;;;7.34;69.06;94301.84;4972204;28;20314;-70
2024/01/03 11:18:41;;;;;;;14.77;11.50;;;;;;;7.48;68.55;94317.03;4990535;28;20695;-69
2024/01/03 11:21:26;;;;;;;16.70;12.27;;;;;;;7.25;69.69;94308.78;4989125;28;20227;-72